Ana Sayfa
METAR-TAF:

METAR-TAF

Havaalanları :

Pointe-Noire, Kongo

Enlem: 04-49S, Boylam: 011-54E, yükseklik: 17 m

Güncel hava durumu gözlemi

Rapor saat 20:00 UTC de 48 dakika önce yapıldı.
Rüzgar güneydan 8 kt
Sıcaklık 25°C
Nem 100%
Basınç 1011 hPa
Görüş mesafesi: 8000 m
1100 ft yükseklikte az bulutlu
2200 ft yükseklikte parçalı çok bulutlu

METAR: FCPP 242000Z 17008KT 8000 FEW011 BKN022 25/25 Q1011 NOSIG

Saat: 21:48 (20:48 UTC)

Tahmin

Rapor saat 17:00 UTC de 3 saat ve 48 dakika önce yapıldı.
Ayın 24'si saat 18 UTC'den ayın 25'si saat 18 UTC'ye kadar geçerli Tahmin
Rüzgar güneydan 12 kt
Görüş mesafesi: 8000 m
1300 ft yükseklikte az bulutlu
2300 ft yükseklikte parçalı çok bulutlu
Olasılık 30%
ayın 25'si saat 04 UTC'den ayın 25'si saat 06 UTC'ye kadar
Rüzgar güneydan 2 kt
Görüş mesafesi: 4000 m
Pus

TAF: FCPP 241700Z 2418/2518 18012KT 8000 FEW013 BKN023 PROB30 2504/2506 18002KT 4000 BR

4.000'den fazla havaalanı için hava durumu gözlemleri ve tahminleri (METAR ve TAF raporları).

Kullanılabilir istasyonlar harita üzerinde sarı ve kırmızı noktalarla gösterilir.

İstasyonun adını görmek için fareyi noktanın üzerinde gezdirin.

Sonrasında hava gözlem ve tahminlerini görmek için tıklayın.

Haritayı değiştirmek için: yaklaştırmak için siyah artı işaretli yeşil düğmeye ve uzaklaştırmak için de eksi işaretli düğmeye hızla tıklayın; bitişik haritalar için yeşil okları kullanın.


METAR-TAF: